createdAt,value
2018-06-13T00:00:22.942Z,988.12
2018-06-13T00:01:33.022Z,988.18
2018-06-13T00:02:43.083Z,988.15
2018-06-13T00:03:52.904Z,988.16
2018-06-13T00:05:02.474Z,988.18
2018-06-13T00:06:12.034Z,988.18
2018-06-13T00:07:21.841Z,988.19
2018-06-13T00:08:32.075Z,988.17
2018-06-13T00:09:42.150Z,988.17
2018-06-13T00:10:52.219Z,988.11
2018-06-13T00:12:02.310Z,988.1
2018-06-13T00:13:12.466Z,988.12
2018-06-13T00:14:22.582Z,988.14
2018-06-13T00:15:32.654Z,988.12
2018-06-13T00:16:42.737Z,988.16
2018-06-13T00:17:52.805Z,988.12
2018-06-13T00:19:02.907Z,988.1
2018-06-13T00:20:12.989Z,988.03
2018-06-13T00:21:22.540Z,988.04
2018-06-13T00:22:32.620Z,988.03
2018-06-13T00:23:42.673Z,987.98
2018-06-13T00:24:52.491Z,987.98
2018-06-13T00:26:02.588Z,987.99
2018-06-13T00:27:12.421Z,988.02
2018-06-13T00:28:22.238Z,988.01
2018-06-13T00:29:32.403Z,988.04
2018-06-13T00:30:42.482Z,988.05
2018-06-13T00:31:52.561Z,988.01
2018-06-13T00:33:02.637Z,987.94
2018-06-13T00:34:12.710Z,987.96
2018-06-13T00:35:22.793Z,987.95
2018-06-13T00:36:32.866Z,987.96
2018-06-13T00:37:43.000Z,987.96
2018-06-13T00:38:53.065Z,987.97
2018-06-13T00:40:03.143Z,987.95
2018-06-13T00:41:12.697Z,987.95
2018-06-13T00:42:22.520Z,987.94
2018-06-13T00:43:32.584Z,987.93
2018-06-13T00:44:42.680Z,987.94
2018-06-13T00:45:52.492Z,987.91
2018-06-13T00:47:01.991Z,987.9
2018-06-13T00:48:12.166Z,987.91
2018-06-13T00:49:22.186Z,987.88
2018-06-13T00:50:32.195Z,987.91
2018-06-13T00:51:42.314Z,987.91
2018-06-13T00:52:52.328Z,987.88
2018-06-13T00:54:02.342Z,987.82
2018-06-13T00:55:12.369Z,987.86
2018-06-13T00:56:22.388Z,987.83
2018-06-13T00:57:32.150Z,987.85
2018-06-13T00:58:42.163Z,987.79
2018-06-13T00:59:52.169Z,987.78
2018-06-13T01:01:01.427Z,987.8
2018-06-13T01:02:11.424Z,987.8
2018-06-13T01:03:21.425Z,987.77
2018-06-13T01:04:31.437Z,987.78
2018-06-13T01:05:41.452Z,987.81
2018-06-13T01:06:50.972Z,987.86
2018-06-13T01:08:01.002Z,987.84
2018-06-13T01:09:11.026Z,987.83
2018-06-13T01:10:21.098Z,987.85
2018-06-13T01:11:31.175Z,987.85
2018-06-13T01:12:40.980Z,987.8
2018-06-13T01:13:51.055Z,987.78
2018-06-13T01:15:01.132Z,987.77
2018-06-13T01:16:11.214Z,987.77
2018-06-13T01:17:21.275Z,987.76
2018-06-13T01:18:31.341Z,987.72
2018-06-13T01:19:41.166Z,987.74
2018-06-13T01:20:50.980Z,987.68
2018-06-13T01:22:01.052Z,987.73
2018-06-13T01:23:11.308Z,987.72
2018-06-13T01:24:21.385Z,987.77
2018-06-13T01:25:31.465Z,987.81
2018-06-13T01:26:41.297Z,987.84
2018-06-13T01:27:51.352Z,987.89
2018-06-13T01:29:01.161Z,987.88
2018-06-13T01:30:11.289Z,987.87
2018-06-13T01:31:21.368Z,987.9
2018-06-13T01:32:31.462Z,987.86
2018-06-13T01:33:41.542Z,987.84
2018-06-13T01:34:51.620Z,987.9
2018-06-13T01:36:01.499Z,987.83
2018-06-13T01:37:11.630Z,987.87
2018-06-13T01:38:21.695Z,987.89
2018-06-13T01:39:31.768Z,987.83
2018-06-13T01:40:41.857Z,987.84
2018-06-13T01:41:51.955Z,987.84
2018-06-13T01:43:01.758Z,987.82
2018-06-13T01:44:11.833Z,987.8
2018-06-13T01:45:21.920Z,987.77
2018-06-13T01:46:32.189Z,987.76
2018-06-13T01:47:42.294Z,987.69
2018-06-13T01:48:52.350Z,987.75
2018-06-13T01:50:02.163Z,987.66
2018-06-13T01:51:11.968Z,987.59
2018-06-13T01:52:22.052Z,987.57
2018-06-13T01:53:32.169Z,987.52
2018-06-13T01:54:41.979Z,987.5
2018-06-13T01:55:52.053Z,987.4
2018-06-13T01:57:01.865Z,987.41
2018-06-13T01:58:11.948Z,987.42
2018-06-13T01:59:21.756Z,987.4
2018-06-13T02:00:31.559Z,987.41
2018-06-13T02:01:41.614Z,987.43
2018-06-13T02:02:51.421Z,987.41
2018-06-13T02:04:01.505Z,987.44
2018-06-13T02:05:11.572Z,987.41
2018-06-13T02:06:21.127Z,987.38
2018-06-13T02:07:31.249Z,987.37
2018-06-13T02:08:41.320Z,987.34
2018-06-13T02:09:51.387Z,987.34
2018-06-13T02:11:01.467Z,987.33
2018-06-13T02:12:11.553Z,987.32
2018-06-13T02:13:21.357Z,987.34
2018-06-13T02:14:31.413Z,987.33
2018-06-13T02:15:41.240Z,987.3
2018-06-13T02:16:51.314Z,987.3
2018-06-13T02:18:01.124Z,987.3
2018-06-13T02:19:10.944Z,987.27
2018-06-13T02:20:21.023Z,987.25
2018-06-13T02:21:31.094Z,987.24
2018-06-13T02:22:41.316Z,987.22
2018-06-13T02:23:51.132Z,987.23
2018-06-13T02:25:00.690Z,987.22
2018-06-13T02:26:10.765Z,987.22
2018-06-13T02:27:20.853Z,987.24
2018-06-13T02:28:30.818Z,987.26
2018-06-13T02:29:40.892Z,987.26
2018-06-13T02:30:50.977Z,987.23
2018-06-13T02:32:01.064Z,987.26
2018-06-13T02:33:10.883Z,987.26
2018-06-13T02:34:20.967Z,987.26
2018-06-13T02:35:30.798Z,987.28
2018-06-13T02:36:40.887Z,987.29
2018-06-13T02:37:50.971Z,987.32
2018-06-13T02:39:01.695Z,987.39
2018-06-13T02:40:11.559Z,987.41
2018-06-13T02:41:21.630Z,987.49
2018-06-13T02:42:31.720Z,987.5
2018-06-13T02:43:41.802Z,987.48
2018-06-13T02:44:51.900Z,987.43
2018-06-13T02:46:01.976Z,987.38
2018-06-13T02:47:11.801Z,987.35
2018-06-13T02:48:21.898Z,987.3
2018-06-13T02:49:31.761Z,987.28
2018-06-13T02:50:41.837Z,987.29
2018-06-13T02:51:51.912Z,987.3
2018-06-13T02:53:02.022Z,987.29
2018-06-13T02:54:12.130Z,987.28
2018-06-13T02:55:22.214Z,987.3
2018-06-13T02:56:32.282Z,987.3
2018-06-13T02:57:42.086Z,987.29
2018-06-13T02:58:51.628Z,987.29
2018-06-13T03:00:01.459Z,987.24
2018-06-13T03:01:11.678Z,987.26
2018-06-13T03:02:21.484Z,987.2
2018-06-13T03:34:48.337Z,987.35
2018-06-13T03:35:58.399Z,987.33
2018-06-13T03:37:08.462Z,987.37
2018-06-13T03:38:18.532Z,987.34
2018-06-13T03:39:28.595Z,987.35
2018-06-13T03:40:38.676Z,987.36
2018-06-13T03:41:48.498Z,987.36
2018-06-13T03:42:58.316Z,987.42
2018-06-13T03:44:08.377Z,987.41
2018-06-13T03:45:18.460Z,987.44
2018-06-13T03:46:28.538Z,987.43
2018-06-13T03:47:38.625Z,987.41
2018-06-13T03:48:48.436Z,987.4
2018-06-13T03:49:58.501Z,987.4
2018-06-13T03:51:08.322Z,987.41
2018-06-13T03:53:42.840Z,987.43
2018-06-13T03:54:52.916Z,987.47
2018-06-13T03:56:02.980Z,987.46
2018-06-13T03:57:13.130Z,987.48
2018-06-13T03:58:22.958Z,987.49
2018-06-13T03:59:32.497Z,987.47
2018-06-13T04:00:42.568Z,987.45
2018-06-13T04:01:52.698Z,987.47
2018-06-13T04:03:02.836Z,987.42
2018-06-13T04:04:12.936Z,987.42
2018-06-13T04:05:23.063Z,987.46
2018-06-13T04:06:32.877Z,987.47
2018-06-13T04:07:43.006Z,987.48
2018-06-13T04:08:53.089Z,987.48
2018-06-13T04:10:02.914Z,987.52
2018-06-13T04:11:13.003Z,987.51
2018-06-13T04:12:22.833Z,987.54
2018-06-13T04:13:32.916Z,987.51
2018-06-13T04:14:42.564Z,987.51
2018-06-13T04:15:52.639Z,987.5
2018-06-13T04:17:02.717Z,987.5
2018-06-13T04:18:12.787Z,987.52
2018-06-13T04:19:22.601Z,987.54
2018-06-13T04:20:32.417Z,987.49
2018-06-13T04:21:42.489Z,987.49
2018-06-13T04:22:52.562Z,987.52
2018-06-13T04:24:02.657Z,987.49
2018-06-13T04:25:12.728Z,987.53
2018-06-13T04:26:22.544Z,987.54
2018-06-13T04:27:32.616Z,987.51
2018-06-13T04:28:42.434Z,987.52
2018-06-13T04:29:52.510Z,987.56
2018-06-13T04:31:02.382Z,987.6
2018-06-13T04:32:12.185Z,987.63
2018-06-13T04:33:21.752Z,987.65
2018-06-13T04:34:31.820Z,987.68
2018-06-13T04:35:41.652Z,987.7
2018-06-13T04:36:51.584Z,987.67
2018-06-13T04:38:01.654Z,987.66
2018-06-13T04:39:11.724Z,987.65
2018-06-13T04:40:21.811Z,987.65
2018-06-13T04:41:31.906Z,987.67
2018-06-13T04:42:41.466Z,987.68
2018-06-13T04:43:51.548Z,987.67
2018-06-13T04:45:01.614Z,987.68
2018-06-13T04:46:11.442Z,987.72
2018-06-13T04:47:21.519Z,987.72
2018-06-13T04:48:31.381Z,987.73
2018-06-13T04:49:41.439Z,987.72
2018-06-13T04:50:51.001Z,987.7
2018-06-13T04:52:01.072Z,987.63
2018-06-13T04:53:10.874Z,987.64
2018-06-13T04:54:20.956Z,987.62
2018-06-13T04:55:31.033Z,987.63
2018-06-13T04:56:41.106Z,987.65
2018-06-13T04:57:51.191Z,987.65
2018-06-13T04:59:00.736Z,987.64
2018-06-13T05:00:10.876Z,987.64
2018-06-13T05:01:20.973Z,987.58
2018-06-13T05:02:31.048Z,987.59
2018-06-13T05:03:40.620Z,987.62
2018-06-13T05:04:50.700Z,987.64
2018-06-13T05:06:00.831Z,987.67
2018-06-13T05:07:10.904Z,987.67
2018-06-13T05:08:20.989Z,987.64
2018-06-13T05:09:31.059Z,987.67
2018-06-13T05:10:41.128Z,987.66
2018-06-13T05:11:51.255Z,987.67
2018-06-13T05:13:01.082Z,987.65
2018-06-13T05:14:11.157Z,987.66
2018-06-13T05:15:20.992Z,987.66
2018-06-13T05:16:30.810Z,987.68
2018-06-13T05:17:40.373Z,987.71
2018-06-13T05:18:50.440Z,987.69
2018-06-13T05:20:00.535Z,987.68
2018-06-13T05:21:10.339Z,987.71
2018-06-13T05:22:20.148Z,987.68
2018-06-13T05:23:30.225Z,987.7
2018-06-13T05:24:40.037Z,987.7
2018-06-13T05:25:50.102Z,987.72
2018-06-13T05:26:59.924Z,987.88
2018-06-13T05:28:09.993Z,987.83
2018-06-13T05:29:20.063Z,988.2
2018-06-13T05:30:30.138Z,987.74
2018-06-13T05:31:39.963Z,987.83
2018-06-13T05:32:50.039Z,987.96
2018-06-13T05:34:00.116Z,988.02
2018-06-13T05:35:09.925Z,988.2
2018-06-13T05:36:20.013Z,988.37
2018-06-13T05:37:29.838Z,988.21
2018-06-13T05:38:39.654Z,988.27
2018-06-13T05:39:49.213Z,988.21
2018-06-13T05:40:59.348Z,988.24
2018-06-13T05:42:09.422Z,988.31
2018-06-13T05:43:18.974Z,988.38
2018-06-13T05:44:28.826Z,988.31
2018-06-13T05:45:38.896Z,988.32
2018-06-13T05:46:48.979Z,988.3
2018-06-13T05:47:58.807Z,988.31
2018-06-13T05:49:08.889Z,988.14
2018-06-13T05:50:18.709Z,988.02
2018-06-13T05:51:28.771Z,988.05
2018-06-13T05:52:38.861Z,988.02
2018-06-13T05:53:48.933Z,988.08
2018-06-13T05:54:58.814Z,988.11
2018-06-13T05:56:08.849Z,988.13
2018-06-13T05:57:18.934Z,988.15
2018-06-13T05:58:29.001Z,988.19
2018-06-13T05:59:38.847Z,988.15
2018-06-13T06:00:48.668Z,988.22
2018-06-13T06:01:58.745Z,988.25
2018-06-13T06:03:08.571Z,988.21
2018-06-13T06:04:18.654Z,988.19
2018-06-13T06:05:28.217Z,988.15
2018-06-13T06:06:38.300Z,988.21
2018-06-13T06:07:48.396Z,988.18
2018-06-13T06:08:58.216Z,988.15
2018-06-13T06:10:08.297Z,988.18
2018-06-13T06:11:18.324Z,988.24
2018-06-13T06:12:28.433Z,988.27
2018-06-13T06:13:38.510Z,988.29
2018-06-13T06:14:48.346Z,988.29
2018-06-13T06:15:58.205Z,988.37
2018-06-13T06:17:08.310Z,988.3
2018-06-13T06:18:18.416Z,988.4
2018-06-13T06:19:28.262Z,988.2
2018-06-13T06:20:38.086Z,988.16
2018-06-13T06:21:48.176Z,988.23
2018-06-13T06:22:58.261Z,988.44
2018-06-13T06:24:08.078Z,988.15
2018-06-13T06:25:18.142Z,988.19
2018-06-13T06:26:28.238Z,988.25
2018-06-13T06:27:38.319Z,988.19
2018-06-13T06:28:48.393Z,988.45
2018-06-13T06:29:58.467Z,988.42
2018-06-13T06:31:08.275Z,988.4
2018-06-13T06:32:18.362Z,988.4
2018-06-13T06:33:28.220Z,988.37
2018-06-13T06:34:38.336Z,988.34
2018-06-13T06:35:48.414Z,988.34
2018-06-13T06:36:58.531Z,988.33
2018-06-13T06:38:08.376Z,988.33
2018-06-13T06:39:18.462Z,988.28
2018-06-13T06:40:28.529Z,988.26
2018-06-13T06:41:38.622Z,988.21
2018-06-13T06:42:48.446Z,988.22
2018-06-13T06:43:58.268Z,988.22
2018-06-13T06:45:08.361Z,988.25
2018-06-13T06:46:18.459Z,988.24
2018-06-13T06:47:28.545Z,988.19
2018-06-13T06:48:38.697Z,988.21
2018-06-13T06:49:48.532Z,988.19
2018-06-13T06:50:58.684Z,988.16
2018-06-13T06:52:08.815Z,988.11
2018-06-13T06:53:18.640Z,988.11
2018-06-13T06:54:28.718Z,988.11
2018-06-13T06:55:38.976Z,988.09
2018-06-13T06:56:49.127Z,988.08
2018-06-13T06:57:59.225Z,988.07
2018-06-13T06:59:08.803Z,988.01
2018-06-13T07:00:18.906Z,987.94
2018-06-13T07:01:29.019Z,987.89
2018-06-13T07:02:39.154Z,987.92
2018-06-13T07:03:49.475Z,987.95
2018-06-13T07:04:59.585Z,987.82
2018-06-13T07:06:09.695Z,987.88
2018-06-13T07:07:19.512Z,987.94
2018-06-13T07:08:29.325Z,987.88
2018-06-13T07:09:39.397Z,987.88
2018-06-13T07:10:48.962Z,987.9
2018-06-13T07:11:59.042Z,987.89
2018-06-13T07:13:08.920Z,987.88
2018-06-13T07:14:19.755Z,987.89
2018-06-13T07:15:29.585Z,987.81
2018-06-13T07:16:39.690Z,987.81
2018-06-13T07:17:49.742Z,987.83
2018-06-13T07:18:59.792Z,987.79
2018-06-13T07:20:10.124Z,987.75
2018-06-13T07:21:20.241Z,987.77
2018-06-13T07:22:30.322Z,987.78
2018-06-13T07:23:40.412Z,987.81
2018-06-13T07:24:50.575Z,987.83
2018-06-13T07:26:00.492Z,987.87
2018-06-13T07:27:10.589Z,987.89
2018-06-13T07:28:20.409Z,987.89
2018-06-13T07:29:30.495Z,987.93
2018-06-13T07:30:40.608Z,987.96
2018-06-13T07:31:50.695Z,987.97
2018-06-13T07:33:00.767Z,987.91
2018-06-13T07:34:10.858Z,987.93
2018-06-13T07:35:20.996Z,987.97
2018-06-13T07:36:31.113Z,987.97
2018-06-13T07:37:41.221Z,987.87
2018-06-13T07:38:51.316Z,987.93
2018-06-13T07:40:01.440Z,987.91
2018-06-13T07:41:11.548Z,987.86
2018-06-13T07:42:21.406Z,987.87
2018-06-13T07:43:31.531Z,987.82
2018-06-13T07:44:41.621Z,987.81
2018-06-13T07:45:51.701Z,987.75
2018-06-13T07:47:01.784Z,987.7
2018-06-13T07:48:11.605Z,987.7
2018-06-13T07:49:21.672Z,987.71
2018-06-13T07:50:31.779Z,987.7
2018-06-13T07:51:41.889Z,987.72
2018-06-13T07:52:51.978Z,987.76
2018-06-13T07:54:02.052Z,987.73
2018-06-13T07:55:11.911Z,987.74
2018-06-13T07:56:22.273Z,987.73
2018-06-13T07:57:32.389Z,987.72
2018-06-13T07:58:42.485Z,987.75
2018-06-13T07:59:52.568Z,987.75
2018-06-13T08:01:02.383Z,987.73
2018-06-13T08:02:12.502Z,987.71
2018-06-13T08:03:22.828Z,987.62
2018-06-13T08:04:33.158Z,987.65
2018-06-13T08:05:42.994Z,987.67
2018-06-13T08:06:53.133Z,987.66
2018-06-13T08:08:02.708Z,987.74
2018-06-13T08:09:12.802Z,987.73
2018-06-13T08:10:22.877Z,987.75
2018-06-13T08:11:32.959Z,987.75
2018-06-13T08:12:43.066Z,987.72
2018-06-13T08:13:53.164Z,987.66
2018-06-13T08:15:03.275Z,987.69
2018-06-13T08:16:13.406Z,987.69
2018-06-13T08:17:23.471Z,987.68
2018-06-13T08:18:33.610Z,987.69
2018-06-13T08:19:43.688Z,987.74
2018-06-13T08:20:53.789Z,987.8
2018-06-13T08:22:03.619Z,987.79
2018-06-13T08:23:13.727Z,987.71
2018-06-13T08:24:23.801Z,987.63
2018-06-13T08:25:33.873Z,987.65
2018-06-13T08:26:43.729Z,987.68
2018-06-13T08:27:53.803Z,987.69
2018-06-13T08:29:03.915Z,987.67
2018-06-13T08:30:14.064Z,987.68
2018-06-13T08:31:24.138Z,987.68
2018-06-13T08:32:34.226Z,987.66
2018-06-13T08:33:44.360Z,987.62
2018-06-13T08:34:54.778Z,987.66
2018-06-13T08:36:04.874Z,987.69
2018-06-13T08:37:14.955Z,987.68
2018-06-13T08:38:25.058Z,987.7
2018-06-13T08:39:34.920Z,987.71
2018-06-13T08:40:45.078Z,987.75
2018-06-13T08:41:55.222Z,987.74
2018-06-13T08:43:05.340Z,987.73
2018-06-13T08:44:15.451Z,987.75
2018-06-13T08:45:25.310Z,987.76
2018-06-13T08:46:35.152Z,987.8
2018-06-13T08:47:45.262Z,987.84
2018-06-13T08:48:55.103Z,987.86
2018-06-13T08:50:04.926Z,987.89
2018-06-13T08:51:15.030Z,987.94
2018-06-13T08:52:24.886Z,987.95
2018-06-13T08:53:35.055Z,987.94
2018-06-13T08:54:45.153Z,987.91
2018-06-13T08:55:55.251Z,987.93
2018-06-13T08:57:05.364Z,987.96
2018-06-13T08:58:15.459Z,987.95
2018-06-13T08:59:25.562Z,987.93
2018-06-13T09:00:35.417Z,987.9
2018-06-13T09:01:45.533Z,987.93
2018-06-13T09:02:55.355Z,987.92
2018-06-13T09:04:05.429Z,987.97
2018-06-13T09:05:15.507Z,987.94
2018-06-13T09:06:25.583Z,987.94
2018-06-13T09:07:35.686Z,987.94
2018-06-13T09:08:45.773Z,987.87
2018-06-13T09:09:56.005Z,987.84
2018-06-13T09:11:06.142Z,987.94
2018-06-13T09:12:15.969Z,987.91
2018-06-13T09:13:26.077Z,987.91
2018-06-13T09:14:36.164Z,987.91
2018-06-13T09:15:46.278Z,987.91
2018-06-13T09:16:56.525Z,987.84
2018-06-13T09:18:06.362Z,987.85
2018-06-13T09:19:16.485Z,987.88
2018-06-13T09:20:26.646Z,987.87
2018-06-13T09:21:36.717Z,987.9
2018-06-13T09:22:46.085Z,987.86
2018-06-13T09:23:56.181Z,987.88
2018-06-13T09:25:05.990Z,987.85
2018-06-13T09:26:16.071Z,987.85
2018-06-13T09:27:26.153Z,987.86
2018-06-13T09:28:36.059Z,987.89
2018-06-13T09:29:46.144Z,987.86
2018-06-13T09:30:56.238Z,987.86
2018-06-13T09:32:06.332Z,987.84
2018-06-13T09:33:16.425Z,987.87
2018-06-13T09:34:26.522Z,987.82
2018-06-13T09:35:36.620Z,987.85
2018-06-13T09:36:46.737Z,987.89
2018-06-13T09:37:56.555Z,987.92
2018-06-13T09:39:06.389Z,987.89
2018-06-13T09:40:16.507Z,987.89
2018-06-13T09:41:25.803Z,987.92
2018-06-13T09:42:35.629Z,987.92
2018-06-13T09:43:45.750Z,987.91
2018-06-13T09:44:55.915Z,987.9
2018-06-13T09:46:11.863Z,987.9
2018-06-13T09:47:23.455Z,987.95
2018-06-13T09:48:32.316Z,987.91
2018-06-13T09:49:42.426Z,987.93
2018-06-13T09:50:52.534Z,987.89
2018-06-13T09:52:02.563Z,987.88
2018-06-13T09:53:12.406Z,987.94
2018-06-13T09:54:22.519Z,987.91
2018-06-13T09:55:32.766Z,987.92
2018-06-13T09:56:42.661Z,987.93
2018-06-13T09:57:53.032Z,987.84
2018-06-13T09:59:02.867Z,987.95
2018-06-13T10:00:12.965Z,987.92
2018-06-13T10:01:23.052Z,988.01
2018-06-13T10:02:32.894Z,987.91
2018-06-13T10:03:42.717Z,987.88
2018-06-13T10:04:52.823Z,987.88
2018-06-13T10:06:02.925Z,987.8
2018-06-13T10:07:13.002Z,987.82
2018-06-13T10:08:23.076Z,987.8
2018-06-13T10:09:32.895Z,987.87
2018-06-13T10:10:42.452Z,987.84
2018-06-13T10:11:52.567Z,987.91
2018-06-13T10:13:02.649Z,987.88
2018-06-13T10:14:12.772Z,987.86
2018-06-13T10:15:22.852Z,987.8
2018-06-13T10:16:32.921Z,987.82
2018-06-13T10:17:42.993Z,987.74
2018-06-13T10:18:52.859Z,987.72
2018-06-13T10:20:02.961Z,987.66
2018-06-13T10:21:12.529Z,987.61
2018-06-13T10:22:22.657Z,987.62
2018-06-13T10:23:32.737Z,987.58
2018-06-13T10:24:42.818Z,987.54
2018-06-13T10:25:52.379Z,987.57
2018-06-13T10:27:02.493Z,987.54
2018-06-13T10:28:12.596Z,987.46
2018-06-13T10:29:22.669Z,987.53
2018-06-13T10:30:32.775Z,987.44
2018-06-13T10:31:42.596Z,987.46
2018-06-13T10:32:52.693Z,987.4
2018-06-13T10:34:02.779Z,987.37
2018-06-13T10:35:12.948Z,987.38
2018-06-13T10:36:23.050Z,987.36
2018-06-13T10:37:32.909Z,987.4
2018-06-13T10:38:42.997Z,987.35
2018-06-13T10:39:53.028Z,987.37
2018-06-13T10:41:03.158Z,987.37
2018-06-13T10:42:12.987Z,987.36
2018-06-13T10:43:23.076Z,987.39
2018-06-13T10:44:33.152Z,987.37
2018-06-13T10:45:42.730Z,987.38
2018-06-13T10:46:52.859Z,987.42
2018-06-13T10:48:02.944Z,987.4
2018-06-13T10:49:12.515Z,987.42
2018-06-13T10:50:22.605Z,987.42
2018-06-13T10:51:32.429Z,987.5
2018-06-13T10:52:42.526Z,987.54
2018-06-13T10:53:52.596Z,987.53
2018-06-13T10:55:02.707Z,987.55
2018-06-13T10:56:12.611Z,987.49
2018-06-13T10:57:22.714Z,987.52
2018-06-13T10:58:32.791Z,987.45
2018-06-13T10:59:42.888Z,987.52
2018-06-13T11:00:52.985Z,987.49
2018-06-13T11:02:03.083Z,987.5
2018-06-13T11:03:13.171Z,987.49
2018-06-13T11:04:23.251Z,987.44
2018-06-13T11:05:33.316Z,987.49
2018-06-13T11:06:43.399Z,987.5
2018-06-13T11:07:53.485Z,987.53
2018-06-13T11:09:03.565Z,987.46
2018-06-13T11:10:13.664Z,987.45
2018-06-13T11:11:23.750Z,987.5
2018-06-13T11:12:33.853Z,987.39
2018-06-13T11:13:43.937Z,987.44
2018-06-13T11:14:53.755Z,987.46
2018-06-13T11:16:03.855Z,987.49
2018-06-13T11:17:13.704Z,987.55
2018-06-13T11:18:23.806Z,987.5
2018-06-13T11:19:33.937Z,987.51
2018-06-13T11:20:44.298Z,987.49
2018-06-13T11:21:54.378Z,987.46
2018-06-13T11:23:04.216Z,987.54
2018-06-13T11:24:14.299Z,987.49
2018-06-13T11:25:24.396Z,987.53
2018-06-13T11:26:34.488Z,987.48
2018-06-13T11:27:44.382Z,987.5
2018-06-13T11:28:54.486Z,987.45
2018-06-13T11:30:04.594Z,987.41
2018-06-13T11:31:14.686Z,987.36
2018-06-13T11:32:24.832Z,987.36
2018-06-13T11:33:34.703Z,987.38
2018-06-13T11:34:44.778Z,987.4
2018-06-13T11:35:54.873Z,987.38
2018-06-13T11:37:04.703Z,987.4
2018-06-13T11:38:14.517Z,987.4
2018-06-13T11:39:24.342Z,987.44
2018-06-13T11:40:34.410Z,987.42
2018-06-13T11:41:44.512Z,987.38
2018-06-13T11:42:54.590Z,987.33
2018-06-13T11:44:04.689Z,987.32
2018-06-13T11:45:14.802Z,987.35
2018-06-13T11:46:24.901Z,987.34
2018-06-13T11:47:35.004Z,987.33
2018-06-13T11:48:45.092Z,987.36
2018-06-13T11:49:55.176Z,987.34
2018-06-13T11:51:05.282Z,987.36
2018-06-13T11:52:15.125Z,987.32
2018-06-13T11:53:25.214Z,987.35
2018-06-13T11:54:35.207Z,987.31
2018-06-13T11:55:45.291Z,987.25
2018-06-13T11:56:55.380Z,987.34
2018-06-13T11:58:05.471Z,987.35
2018-06-13T11:59:15.035Z,987.35
2018-06-13T12:00:25.176Z,987.31
2018-06-13T12:01:35.555Z,987.34
2018-06-13T12:02:45.847Z,987.33
2018-06-13T12:03:55.927Z,987.31
2018-06-13T12:05:06.029Z,987.24
2018-06-13T12:06:15.872Z,987.33
2018-06-13T12:07:25.993Z,987.34
2018-06-13T12:08:36.082Z,987.29
2018-06-13T12:09:46.178Z,987.3
2018-06-13T12:10:55.784Z,987.32
2018-06-13T12:12:06.160Z,987.29
2018-06-13T12:13:16.240Z,987.28
2018-06-13T12:14:26.381Z,987.27
2018-06-13T12:15:36.472Z,987.26
2018-06-13T12:16:46.577Z,987.28
2018-06-13T12:17:56.865Z,987.21
2018-06-13T12:19:06.943Z,987.25
2018-06-13T12:20:17.095Z,987.24
2018-06-13T12:21:27.179Z,987.24
2018-06-13T12:22:37.353Z,987.21
2018-06-13T12:23:47.477Z,987.24
2018-06-13T12:24:57.560Z,987.17
2018-06-13T12:26:07.664Z,987.18
2018-06-13T12:27:17.754Z,987.17
2018-06-13T12:28:27.563Z,987.17
2018-06-13T12:29:37.501Z,987.22
2018-06-13T12:30:47.623Z,987.17
2018-06-13T12:31:57.789Z,987.22
2018-06-13T12:33:07.896Z,987.2
2018-06-13T12:34:17.776Z,987.19
2018-06-13T12:35:27.521Z,987.17
2018-06-13T12:36:37.644Z,987.2
2018-06-13T12:37:47.801Z,987.21
2018-06-13T12:38:57.912Z,987.21
2018-06-13T12:40:08.175Z,987.2
2018-06-13T12:41:18.498Z,987.2
2018-06-13T12:42:28.610Z,987.2
2018-06-13T12:43:38.708Z,987.23
2018-06-13T12:44:48.793Z,987.25
2018-06-13T12:45:58.885Z,987.21
2018-06-13T12:47:08.445Z,987.2
2018-06-13T12:48:18.286Z,987.29
2018-06-13T12:49:28.397Z,987.3
2018-06-13T12:50:38.504Z,987.27
2018-06-13T12:51:48.363Z,987.2
2018-06-13T12:52:58.461Z,987.19
2018-06-13T12:54:08.309Z,987.35
2018-06-13T12:55:18.135Z,987.26
2018-06-13T12:56:27.970Z,987.28
2018-06-13T12:57:38.076Z,987.24
2018-06-13T12:58:48.001Z,987.28
2018-06-13T12:59:58.630Z,987.24
2018-06-13T13:01:08.733Z,987.29
2018-06-13T13:02:18.818Z,987.25
2018-06-13T13:03:28.383Z,987.2
2018-06-13T13:04:38.551Z,987.21
2018-06-13T13:05:48.588Z,987.24
2018-06-13T13:06:58.386Z,987.22
2018-06-13T13:08:08.193Z,987.25
2018-06-13T13:09:18.254Z,987.3
2018-06-13T13:10:27.800Z,987.31
2018-06-13T13:11:38.174Z,987.26
2018-06-13T13:12:47.796Z,987.23
2018-06-13T13:13:58.110Z,987.28
2018-06-13T13:15:08.306Z,987.23
2018-06-13T13:16:18.381Z,987.26
2018-06-13T13:17:28.552Z,987.25
2018-06-13T13:18:38.604Z,987.22
2018-06-13T13:19:48.807Z,987.3
2018-06-13T13:20:58.844Z,987.33
2018-06-13T13:22:08.926Z,987.26
2018-06-13T13:23:18.771Z,987.41
2018-06-13T13:24:28.568Z,987.32
2018-06-13T13:25:38.083Z,987.41
2018-06-13T13:26:48.175Z,987.42
2018-06-13T13:27:58.251Z,987.47
2018-06-13T13:29:08.540Z,987.39
2018-06-13T13:30:18.604Z,987.39
2018-06-13T13:31:28.909Z,987.37
2018-06-13T13:32:38.971Z,987.38
2018-06-13T13:33:49.057Z,987.36
2018-06-13T13:34:58.944Z,987.32
2018-06-13T13:36:09.074Z,987.34
2018-06-13T13:37:19.124Z,987.38
2018-06-13T13:38:28.915Z,987.4
2018-06-13T13:39:38.482Z,987.46
2018-06-13T13:40:48.596Z,987.46
2018-06-13T13:41:58.392Z,987.45
2018-06-13T13:43:08.479Z,987.45
2018-06-13T13:44:18.539Z,987.52
2018-06-13T13:45:28.721Z,987.49
2018-06-13T13:46:39.219Z,987.48
2018-06-13T13:47:49.039Z,987.55
2018-06-13T13:48:59.129Z,987.55
2018-06-13T13:50:09.216Z,987.56
2018-06-13T13:51:19.318Z,987.59
2018-06-13T13:52:29.407Z,987.57
2018-06-13T13:53:39.505Z,987.56
2018-06-13T13:54:49.607Z,987.57
2018-06-13T13:55:59.716Z,987.56
2018-06-13T13:57:09.808Z,987.51
2018-06-13T13:58:19.611Z,987.57
2018-06-13T13:59:29.453Z,987.56
2018-06-13T14:00:39.552Z,987.51
2018-06-13T14:01:49.637Z,987.52
2018-06-13T14:02:59.515Z,987.55
2018-06-13T14:04:09.674Z,987.61
2018-06-13T14:05:19.763Z,987.61
2018-06-13T14:06:29.882Z,987.64
2018-06-13T14:07:40.031Z,987.68
2018-06-13T14:08:50.173Z,987.63
2018-06-13T14:10:00.350Z,987.62
2018-06-13T14:11:10.556Z,987.7
2018-06-13T14:12:20.543Z,987.7
2018-06-13T14:13:31.003Z,987.7
2018-06-13T14:14:41.123Z,987.75
2018-06-13T14:15:51.248Z,987.76
2018-06-13T14:17:01.366Z,987.72
2018-06-13T14:18:11.518Z,987.7
2018-06-13T14:19:21.651Z,987.71
2018-06-13T14:20:31.509Z,987.77
2018-06-13T14:21:41.686Z,987.74
2018-06-13T14:22:51.811Z,987.74
2018-06-13T14:24:01.928Z,987.75
2018-06-13T14:25:11.505Z,987.79
2018-06-13T14:26:21.626Z,987.81
2018-06-13T14:27:31.804Z,987.84
2018-06-13T14:28:41.640Z,987.84
2018-06-13T14:29:51.483Z,987.86
2018-06-13T14:31:01.613Z,987.87
2018-06-13T14:32:11.743Z,987.89
2018-06-13T14:33:21.645Z,987.93
2018-06-13T14:34:31.758Z,987.91
2018-06-13T14:35:41.845Z,987.88
2018-06-13T14:36:52.015Z,987.89
2018-06-13T14:38:02.132Z,987.81
2018-06-13T14:39:12.318Z,987.79
2018-06-13T14:40:22.450Z,987.8
2018-06-13T14:41:32.566Z,987.87
2018-06-13T14:42:42.419Z,987.78
2018-06-13T14:43:52.531Z,987.84
2018-06-13T14:45:02.473Z,987.8
2018-06-13T14:46:12.898Z,987.8
2018-06-13T14:47:23.013Z,987.8
2018-06-13T14:48:33.146Z,987.83
2018-06-13T14:49:43.463Z,987.84
2018-06-13T14:50:53.669Z,987.86
2018-06-13T14:52:03.790Z,987.85
2018-06-13T14:53:13.898Z,987.86
2018-06-13T14:54:23.998Z,987.81
2018-06-13T14:55:33.597Z,987.82
2018-06-13T14:56:43.733Z,987.89
2018-06-13T14:57:54.229Z,987.89
2018-06-13T14:59:04.083Z,987.85
2018-06-13T15:00:14.190Z,987.88
2018-06-13T15:01:24.311Z,987.87
2018-06-13T15:02:34.476Z,987.93
2018-06-13T15:03:44.603Z,987.99
2018-06-13T15:04:54.716Z,987.96
2018-06-13T15:06:04.829Z,987.97
2018-06-13T15:07:14.936Z,988.03
2018-06-13T15:08:25.070Z,988.05
2018-06-13T15:09:35.211Z,988.07